createdAt,value
2017-08-30T00:04:36.947Z,21.82
2017-08-30T00:09:33.655Z,21.77
2017-08-30T00:14:29.396Z,21.77
2017-08-30T00:19:25.287Z,21.77
2017-08-30T00:24:21.521Z,21.75
2017-08-30T00:29:18.772Z,21.75
2017-08-30T00:34:14.909Z,21.77
2017-08-30T00:39:10.972Z,21.75
2017-08-30T00:44:06.700Z,21.91
2017-08-30T00:49:05.046Z,21.82
2017-08-30T00:54:01.588Z,21.77
2017-08-30T00:58:58.214Z,21.82
2017-08-30T01:03:53.973Z,21.82
2017-08-30T01:08:50.765Z,21.76
2017-08-30T01:13:47.360Z,21.80
2017-08-30T01:18:43.079Z,21.77
2017-08-30T01:23:39.189Z,21.83
2017-08-30T01:28:35.190Z,21.82
2017-08-30T01:33:31.031Z,21.85
2017-08-30T01:38:27.018Z,21.87
2017-08-30T01:43:24.277Z,21.98
2017-08-30T01:48:19.825Z,21.80
2017-08-30T01:53:15.748Z,21.87
2017-08-30T01:58:12.104Z,21.89
2017-08-30T02:03:08.091Z,21.80
2017-08-30T02:08:03.968Z,21.82
2017-08-30T02:12:59.821Z,21.80
2017-08-30T02:17:56.938Z,21.76
2017-08-30T02:22:52.817Z,21.76
2017-08-30T02:27:48.890Z,21.79
2017-08-30T02:32:46.315Z,21.77
2017-08-30T02:37:41.844Z,21.79
2017-08-30T02:42:38.978Z,21.83
2017-08-30T02:47:34.568Z,21.77
2017-08-30T02:52:31.393Z,21.83
2017-08-30T02:57:27.091Z,21.76
2017-08-30T03:02:22.926Z,21.76
2017-08-30T03:07:19.957Z,21.76
2017-08-30T03:12:16.759Z,21.85
2017-08-30T03:17:12.128Z,21.67
2017-08-30T03:22:08.378Z,21.48
2017-08-30T03:27:04.279Z,21.32
2017-08-30T03:32:00.144Z,21.42
2017-08-30T03:36:56.125Z,21.32
2017-08-30T03:41:52.068Z,21.27
2017-08-30T03:46:47.891Z,21.12
2017-08-30T03:51:43.710Z,21.06
2017-08-30T03:56:39.495Z,21.05
2017-08-30T04:01:35.259Z,20.93
2017-08-30T04:06:30.975Z,20.82
2017-08-30T04:11:26.719Z,20.70
2017-08-30T04:16:23.633Z,20.55
2017-08-30T04:21:19.362Z,20.52
2017-08-30T04:26:15.203Z,20.60
2017-08-30T04:31:11.271Z,20.39
2017-08-30T04:36:08.154Z,20.26
2017-08-30T04:41:03.540Z,19.91
2017-08-30T04:46:00.677Z,19.86
2017-08-30T04:50:57.628Z,19.70
2017-08-30T04:55:53.991Z,19.64
2017-08-30T05:00:49.531Z,19.79
2017-08-30T05:05:45.088Z,19.74
2017-08-30T05:10:41.321Z,19.73
2017-08-30T05:15:37.697Z,19.88
2017-08-30T05:20:33.620Z,20.02
2017-08-30T05:25:29.654Z,19.99
2017-08-30T05:30:25.507Z,19.88
2017-08-30T05:35:21.379Z,20.03
2017-08-30T05:40:17.657Z,20.06
2017-08-30T05:45:13.520Z,20.06
2017-08-30T05:50:09.549Z,19.99
2017-08-30T05:55:07.663Z,20.18
2017-08-30T06:00:04.211Z,20.34
2017-08-30T06:05:00.055Z,20.47
2017-08-30T06:09:56.135Z,20.59
2017-08-30T06:14:52.125Z,20.41
2017-08-30T06:19:48.241Z,20.50
2017-08-30T06:24:44.220Z,20.52
2017-08-30T06:29:40.051Z,20.59
2017-08-30T06:34:36.021Z,20.59
2017-08-30T06:39:31.814Z,20.60
2017-08-30T06:44:27.537Z,20.66
2017-08-30T06:49:23.958Z,20.72
2017-08-30T06:54:19.986Z,20.82
2017-08-30T06:59:15.969Z,20.81
2017-08-30T07:04:12.000Z,20.88
2017-08-30T07:09:08.213Z,21.11
2017-08-30T07:14:04.926Z,21.25
2017-08-30T07:19:01.116Z,21.64
2017-08-30T07:23:57.491Z,22.18
2017-08-30T07:28:54.417Z,22.44
2017-08-30T07:33:50.853Z,22.60
2017-08-30T07:38:47.733Z,22.90
2017-08-30T07:43:44.832Z,22.98
2017-08-30T07:48:40.626Z,22.59
2017-08-30T07:53:36.564Z,22.73
2017-08-30T07:58:33.553Z,23.00
2017-08-30T08:03:29.692Z,23.15
2017-08-30T08:08:25.689Z,23.28
2017-08-30T08:13:21.586Z,23.32
2017-08-30T08:18:19.263Z,23.31
2017-08-30T08:23:14.490Z,23.06
2017-08-30T08:28:10.506Z,23.34
2017-08-30T08:33:06.781Z,23.73
2017-08-30T08:38:03.386Z,24.10
2017-08-30T08:43:01.060Z,24.91
2017-08-30T08:47:57.701Z,25.38
2017-08-30T08:52:54.991Z,25.50
2017-08-30T08:57:51.103Z,25.73
2017-08-30T09:02:47.977Z,25.65
2017-08-30T09:07:44.570Z,25.70
2017-08-30T09:12:41.325Z,25.80
2017-08-30T09:17:38.252Z,26.02
2017-08-30T09:22:34.182Z,26.07
2017-08-30T09:27:30.380Z,25.98
2017-08-30T09:32:26.208Z,26.03
2017-08-30T09:37:22.523Z,26.03
2017-08-30T09:42:18.209Z,25.85
2017-08-30T09:47:14.019Z,25.69
2017-08-30T09:52:10.862Z,25.69
2017-08-30T09:57:07.212Z,25.48
2017-08-30T10:02:03.524Z,25.11
2017-08-30T10:06:59.193Z,24.70
2017-08-30T10:11:55.347Z,24.10
2017-08-30T10:16:50.871Z,23.71
2017-08-30T10:21:46.563Z,23.76
2017-08-30T10:26:42.404Z,23.43
2017-08-30T10:31:39.224Z,23.03
2017-08-30T10:36:34.509Z,22.93
2017-08-30T10:41:30.579Z,22.91
2017-08-30T10:46:26.245Z,22.85
2017-08-30T10:51:22.220Z,22.85
2017-08-30T10:56:18.413Z,22.80
2017-08-30T11:01:15.283Z,22.53
2017-08-30T11:06:11.973Z,22.55
2017-08-30T11:11:08.898Z,22.80
2017-08-30T11:16:04.749Z,23.02
2017-08-30T11:21:03.048Z,23.20
2017-08-30T11:25:58.858Z,23.80
2017-08-30T11:30:56.562Z,24.20
2017-08-30T11:35:54.137Z,24.88
2017-08-30T11:40:50.573Z,25.26
2017-08-30T11:45:46.592Z,25.28
2017-08-30T11:50:43.943Z,25.36
2017-08-30T11:55:40.076Z,25.80
2017-08-30T12:00:36.471Z,25.95
2017-08-30T12:05:34.053Z,26.22
2017-08-30T12:10:30.393Z,26.66
2017-08-30T12:15:26.581Z,26.88
2017-08-30T12:20:22.916Z,27.03
2017-08-30T12:25:20.136Z,26.97
2017-08-30T12:30:16.649Z,27.08
2017-08-30T12:35:12.985Z,26.73
2017-08-30T12:40:08.264Z,26.44
2017-08-30T12:45:03.864Z,26.29
2017-08-30T12:49:59.708Z,26.36
2017-08-30T12:54:55.509Z,26.33
2017-08-30T12:59:51.967Z,26.53
2017-08-30T13:04:48.338Z,26.73
2017-08-30T13:09:45.273Z,26.80
2017-08-30T13:14:41.493Z,27.02
2017-08-30T13:19:38.686Z,27.17
2017-08-30T13:24:34.592Z,27.18
2017-08-30T13:29:32.788Z,27.32
2017-08-30T13:34:28.549Z,27.39
2017-08-30T13:39:24.669Z,27.44
2017-08-30T13:44:20.672Z,27.39
2017-08-30T13:49:17.076Z,27.40
2017-08-30T13:54:14.037Z,27.40
2017-08-30T13:59:10.108Z,27.64
2017-08-30T14:04:06.349Z,27.80
2017-08-30T14:09:03.380Z,27.59
2017-08-30T14:13:58.919Z,27.35
2017-08-30T14:18:54.692Z,27.22
2017-08-30T14:23:51.683Z,27.21
2017-08-30T14:28:48.404Z,27.32
2017-08-30T14:33:44.068Z,27.15
2017-08-30T14:38:39.962Z,27.07
2017-08-30T14:43:38.038Z,26.90
2017-08-30T14:48:34.436Z,26.62
2017-08-30T14:53:29.794Z,26.52
2017-08-30T14:58:25.648Z,26.47
2017-08-30T15:03:22.740Z,26.48
2017-08-30T15:08:18.207Z,26.44
2017-08-30T15:13:14.014Z,26.26
2017-08-30T15:18:09.952Z,26.23
2017-08-30T15:23:06.021Z,26.33
2017-08-30T15:28:03.065Z,26.33
2017-08-30T15:32:58.823Z,26.36
2017-08-30T15:37:54.911Z,26.33
2017-08-30T15:42:51.115Z,26.22
2017-08-30T15:47:46.999Z,26.15
2017-08-30T15:52:42.858Z,25.98
2017-08-30T15:57:38.778Z,25.91
2017-08-30T16:02:35.663Z,25.80
2017-08-30T16:07:32.294Z,25.66
2017-08-30T16:12:27.979Z,25.66
2017-08-30T16:17:23.764Z,25.63
2017-08-30T16:22:19.687Z,25.44
2017-08-30T16:27:16.568Z,25.46
2017-08-30T16:32:14.315Z,25.46
2017-08-30T16:37:09.686Z,25.36
2017-08-30T16:42:05.916Z,25.36
2017-08-30T16:47:01.942Z,25.35
2017-08-30T16:51:58.053Z,25.29
2017-08-30T16:56:54.882Z,25.28
2017-08-30T17:01:50.551Z,25.17
2017-08-30T17:06:46.540Z,25.08
2017-08-30T17:11:43.485Z,25.03
2017-08-30T17:16:40.183Z,24.98
2017-08-30T17:21:36.776Z,24.96
2017-08-30T17:26:32.384Z,24.76
2017-08-30T17:31:28.199Z,24.84
2017-08-30T17:36:23.974Z,24.80
2017-08-30T17:41:20.854Z,24.73
2017-08-30T17:46:16.501Z,24.66
2017-08-30T17:51:13.370Z,24.60
2017-08-30T17:56:10.091Z,24.65
2017-08-30T18:01:07.110Z,24.51
2017-08-30T18:06:02.713Z,24.54
2017-08-30T18:10:58.690Z,24.42
2017-08-30T18:15:54.618Z,24.28
2017-08-30T18:20:50.819Z,24.23
2017-08-30T18:25:47.653Z,24.11
2017-08-30T18:30:43.527Z,23.96
2017-08-30T18:35:40.462Z,23.92
2017-08-30T18:40:37.156Z,23.87
2017-08-30T18:45:33.760Z,23.83
2017-08-30T18:50:29.347Z,23.78
2017-08-30T18:55:26.327Z,23.66
2017-08-30T19:00:22.055Z,23.78
2017-08-30T19:05:20.474Z,23.80
2017-08-30T19:10:16.095Z,23.71
2017-08-30T19:15:14.009Z,23.76
2017-08-30T19:20:09.763Z,23.69
2017-08-30T19:25:07.303Z,23.59
2017-08-30T19:30:05.099Z,23.51
2017-08-30T19:35:01.694Z,23.47
2017-08-30T19:39:59.534Z,23.28
2017-08-30T19:44:55.062Z,23.18
2017-08-30T19:49:52.122Z,22.69
2017-08-30T19:54:47.469Z,21.79
2017-08-30T19:59:43.925Z,21.37
2017-08-30T20:04:39.702Z,21.12
2017-08-30T20:09:35.665Z,21.03
2017-08-30T20:14:31.939Z,20.99
2017-08-30T20:19:27.945Z,20.85
2017-08-30T20:24:24.843Z,20.95
2017-08-30T20:29:20.396Z,20.87
2017-08-30T20:34:16.379Z,20.85
2017-08-30T20:39:12.276Z,20.92
2017-08-30T20:44:09.060Z,20.88
2017-08-30T20:49:05.697Z,20.69
2017-08-30T20:54:00.978Z,20.52
2017-08-30T20:58:57.217Z,20.41
2017-08-30T21:03:53.402Z,20.50
2017-08-30T21:08:51.077Z,20.50
2017-08-30T21:13:48.024Z,20.48
2017-08-30T21:18:43.550Z,20.55
2017-08-30T21:23:39.151Z,20.28
2017-08-30T21:28:36.150Z,20.28
2017-08-30T21:33:33.361Z,20.40
2017-08-30T21:38:30.119Z,20.51
2017-08-30T21:43:27.341Z,20.62
2017-08-30T21:48:22.869Z,20.48
2017-08-30T21:53:18.711Z,20.43
2017-08-30T21:58:14.533Z,20.43
2017-08-30T22:03:09.990Z,20.25
2017-08-30T22:08:05.894Z,20.34
2017-08-30T22:13:01.959Z,20.10
2017-08-30T22:17:58.872Z,19.99
2017-08-30T22:22:54.347Z,19.88
2017-08-30T22:27:51.518Z,19.67
2017-08-30T22:32:47.031Z,19.69
2017-08-30T22:37:44.900Z,19.48
2017-08-30T22:42:40.369Z,19.54
2017-08-30T22:47:36.331Z,19.44
2017-08-30T22:52:32.701Z,19.54
2017-08-30T22:57:29.531Z,19.51
2017-08-30T23:02:26.439Z,19.48
2017-08-30T23:07:22.393Z,19.37
2017-08-30T23:12:19.362Z,19.26
2017-08-30T23:17:15.871Z,19.30
2017-08-30T23:22:13.024Z,19.30
2017-08-30T23:27:08.633Z,19.15
2017-08-30T23:32:05.603Z,19.15
2017-08-30T23:37:02.299Z,19.24
2017-08-30T23:41:57.654Z,19.12
2017-08-30T23:46:53.465Z,19.16
2017-08-30T23:51:49.308Z,19.12
2017-08-30T23:56:45.218Z,19.16
